createdAt,value
2024-03-06T00:01:29.336Z,7.30
2024-03-06T00:04:03.203Z,7.30
2024-03-06T00:06:37.781Z,7.30
2024-03-06T00:09:09.985Z,7.29
2024-03-06T00:11:43.680Z,7.28
2024-03-06T00:14:20.043Z,7.26
2024-03-06T00:16:57.202Z,7.25
2024-03-06T00:19:33.126Z,7.24
2024-03-06T00:22:05.000Z,7.24
2024-03-06T00:24:38.670Z,7.21
2024-03-06T00:27:14.664Z,7.20
2024-03-06T00:29:50.381Z,7.18
2024-03-06T00:32:24.890Z,7.14
2024-03-06T00:34:58.429Z,7.13
2024-03-06T00:37:34.730Z,7.11
2024-03-06T00:40:11.057Z,7.10
2024-03-06T00:42:44.754Z,7.09
2024-03-06T00:45:18.245Z,7.08
2024-03-06T00:47:54.132Z,7.10
2024-03-06T00:50:27.534Z,7.11
2024-03-06T00:53:04.563Z,7.10
2024-03-06T00:55:40.628Z,7.10
2024-03-06T00:58:14.093Z,7.11
2024-03-06T01:00:47.825Z,7.12
2024-03-06T01:03:19.029Z,7.13
2024-03-06T01:05:54.839Z,7.14
2024-03-06T01:08:29.374Z,7.14
2024-03-06T01:11:05.986Z,7.16
2024-03-06T01:13:42.438Z,7.18
2024-03-06T01:16:13.946Z,7.21
2024-03-06T01:18:45.404Z,7.22
2024-03-06T01:21:21.489Z,7.21
2024-03-06T01:23:56.940Z,7.20
2024-03-06T01:26:30.200Z,7.18
2024-03-06T01:29:04.007Z,7.19
2024-03-06T01:31:38.699Z,7.20
2024-03-06T01:34:12.442Z,7.20
2024-03-06T01:36:46.108Z,7.20
2024-03-06T01:39:19.702Z,7.19
2024-03-06T01:41:52.256Z,7.20
2024-03-06T01:44:23.471Z,7.21
2024-03-06T01:46:57.493Z,7.22
2024-03-06T01:49:36.987Z,7.21
2024-03-06T01:52:22.124Z,7.21
2024-03-06T01:54:58.240Z,7.21
2024-03-06T01:57:29.838Z,7.21
2024-03-06T02:00:02.869Z,7.19
2024-03-06T02:02:42.995Z,7.17
2024-03-06T02:05:22.117Z,7.15
2024-03-06T02:07:56.650Z,7.12
2024-03-06T02:10:28.443Z,7.11
2024-03-06T02:13:04.701Z,7.12
2024-03-06T02:15:38.270Z,7.15
2024-03-06T02:18:10.780Z,7.17
2024-03-06T02:20:42.805Z,7.17
2024-03-06T02:23:14.655Z,7.15
2024-03-06T02:25:49.802Z,7.14
2024-03-06T02:28:28.213Z,7.11
2024-03-06T02:31:01.761Z,7.07
2024-03-06T02:33:35.528Z,7.02
2024-03-06T02:36:07.036Z,6.97
2024-03-06T02:38:40.744Z,6.92
2024-03-06T02:41:17.470Z,6.88
2024-03-06T02:43:51.083Z,6.85
2024-03-06T02:46:22.523Z,6.82
2024-03-06T02:48:58.793Z,6.78
2024-03-06T02:51:37.389Z,6.73
2024-03-06T02:54:10.781Z,6.66
2024-03-06T02:56:46.378Z,6.62
2024-03-06T02:59:20.268Z,6.58
2024-03-06T03:01:54.462Z,6.53
2024-03-06T03:04:28.291Z,6.47
2024-03-06T03:07:02.756Z,6.40
2024-03-06T03:09:37.603Z,6.31
2024-03-06T03:12:13.674Z,6.21
2024-03-06T03:14:45.413Z,6.11
2024-03-06T03:17:18.969Z,5.99
2024-03-06T03:19:54.214Z,5.91
2024-03-06T03:22:29.630Z,5.83
2024-03-06T03:25:08.655Z,5.78
2024-03-06T03:27:45.740Z,5.73
2024-03-06T03:30:23.749Z,5.71
2024-03-06T03:32:56.013Z,5.69
2024-03-06T03:35:33.378Z,5.64
2024-03-06T03:38:09.660Z,5.61
2024-03-06T03:40:41.241Z,5.58
2024-03-06T03:43:15.877Z,5.54
2024-03-06T03:45:54.049Z,5.53
2024-03-06T03:48:27.374Z,5.51
2024-03-06T03:51:00.761Z,5.48
2024-03-06T03:53:39.086Z,5.42
2024-03-06T03:56:12.676Z,5.37
2024-03-06T03:58:49.623Z,5.34
2024-03-06T04:01:23.113Z,5.33
2024-03-06T04:03:59.078Z,5.34
2024-03-06T04:06:35.236Z,5.33
2024-03-06T04:09:06.496Z,5.30
2024-03-06T04:11:39.086Z,5.26
2024-03-06T04:14:13.478Z,5.24
2024-03-06T04:16:44.687Z,5.21
2024-03-06T04:19:22.562Z,5.19
2024-03-06T04:21:57.721Z,5.17
2024-03-06T04:24:36.187Z,5.14
2024-03-06T04:27:09.738Z,5.11
2024-03-06T04:29:43.431Z,5.05
2024-03-06T04:32:19.612Z,5.01
2024-03-06T04:34:54.688Z,4.96
2024-03-06T04:37:31.073Z,4.92
2024-03-06T04:40:05.067Z,4.89
2024-03-06T04:42:39.377Z,4.85
2024-03-06T04:45:18.245Z,4.82
2024-03-06T04:47:51.631Z,4.78
2024-03-06T04:50:22.968Z,4.74
2024-03-06T04:52:59.765Z,4.67
2024-03-06T04:55:38.428Z,4.62
2024-03-06T04:58:09.973Z,4.58
2024-03-06T05:00:43.293Z,4.52
2024-03-06T05:59:18.487Z,4.02
2024-03-06T06:01:54.613Z,3.98
2024-03-06T06:04:30.943Z,3.92
2024-03-06T06:07:07.970Z,3.88
2024-03-06T06:09:41.954Z,3.86
2024-03-06T06:12:20.253Z,3.85
2024-03-06T06:14:55.578Z,3.84
2024-03-06T06:17:31.471Z,3.82
2024-03-06T06:20:03.029Z,3.80
2024-03-06T06:22:37.006Z,3.77
2024-03-06T06:25:13.958Z,3.76
2024-03-06T06:27:50.134Z,3.76
2024-03-06T06:30:25.995Z,3.77
2024-03-06T06:32:59.526Z,3.77
2024-03-06T06:35:31.045Z,3.79
2024-03-06T06:38:06.987Z,3.82
2024-03-06T06:40:42.005Z,3.85
2024-03-06T06:43:20.179Z,3.91
2024-03-06T06:45:54.636Z,3.98
2024-03-06T06:48:29.612Z,4.03
2024-03-06T06:51:05.701Z,4.09
2024-03-06T06:53:39.090Z,4.14
2024-03-06T06:56:10.459Z,4.18
2024-03-06T06:58:46.539Z,4.20
2024-03-06T07:01:18.321Z,4.23
2024-03-06T07:03:49.995Z,4.25
2024-03-06T07:06:23.937Z,4.28
2024-03-06T07:08:57.252Z,4.32
2024-03-06T07:11:30.594Z,4.37
2024-03-06T07:14:06.437Z,4.42
2024-03-06T07:16:48.795Z,4.53
2024-03-06T07:19:22.345Z,4.60
2024-03-06T07:21:55.636Z,4.67
2024-03-06T07:24:27.066Z,4.73
2024-03-06T07:27:03.038Z,4.82
2024-03-06T07:29:36.501Z,4.91
2024-03-06T07:32:15.961Z,5.00
2024-03-06T07:34:47.766Z,5.10
2024-03-06T07:37:18.959Z,5.19
2024-03-06T07:39:54.010Z,5.27
2024-03-06T07:42:27.891Z,5.36
2024-03-06T07:45:08.856Z,5.44
2024-03-06T07:47:47.997Z,5.53
2024-03-06T07:50:27.053Z,5.60
2024-03-06T07:53:03.830Z,5.67
2024-03-06T07:55:35.056Z,5.72
2024-03-06T07:58:09.555Z,5.78
2024-03-06T08:00:45.565Z,5.81
2024-03-06T08:03:16.740Z,5.78
2024-03-06T08:05:48.397Z,5.71
2024-03-06T08:08:19.671Z,5.65
2024-03-06T08:10:51.675Z,5.62
2024-03-06T08:13:25.546Z,5.58
2024-03-06T08:15:59.136Z,5.53
2024-03-06T08:18:37.857Z,5.44
2024-03-06T08:21:13.841Z,5.39
2024-03-06T08:23:49.374Z,5.30
2024-03-06T08:26:22.918Z,5.24
2024-03-06T08:28:56.754Z,5.20
2024-03-06T08:31:28.578Z,5.09
2024-03-06T08:34:02.394Z,5.02
2024-03-06T08:36:34.003Z,4.97
2024-03-06T08:39:08.022Z,4.98
2024-03-06T08:41:41.821Z,5.01
2024-03-06T08:44:16.048Z,5.06
2024-03-06T08:46:49.828Z,5.11
2024-03-06T08:49:25.839Z,5.16
2024-03-06T08:51:59.346Z,5.21
2024-03-06T08:54:33.481Z,5.22
2024-03-06T08:57:07.475Z,5.22
2024-03-06T08:59:53.224Z,5.24
2024-03-06T09:02:26.924Z,5.31
2024-03-06T09:05:00.648Z,5.35
2024-03-06T09:07:31.953Z,5.36
2024-03-06T09:10:07.232Z,5.34
2024-03-06T09:12:40.819Z,5.35
2024-03-06T09:15:14.745Z,5.36
2024-03-06T09:17:47.212Z,5.38
2024-03-06T09:20:18.494Z,5.40
2024-03-06T09:22:58.301Z,5.46
2024-03-06T09:25:33.081Z,5.53
2024-03-06T09:28:06.925Z,5.62
2024-03-06T09:30:40.377Z,5.68
2024-03-06T09:33:14.112Z,5.72
2024-03-06T09:35:46.819Z,5.76
2024-03-06T09:38:22.454Z,5.79
2024-03-06T09:41:03.190Z,5.81
2024-03-06T09:43:43.502Z,5.91
2024-03-06T09:46:17.180Z,5.99
2024-03-06T09:48:52.950Z,6.04
2024-03-06T09:51:24.615Z,6.10
2024-03-06T09:53:58.739Z,6.21
2024-03-06T09:56:36.675Z,6.25
2024-03-06T09:59:10.490Z,6.28
2024-03-06T10:02:04.113Z,6.35
2024-03-06T10:04:39.339Z,6.47
2024-03-06T10:07:15.363Z,6.56
2024-03-06T10:09:46.549Z,6.64
2024-03-06T10:12:22.459Z,6.73
2024-03-06T10:14:58.348Z,6.82
2024-03-06T10:17:32.376Z,6.88
2024-03-06T10:20:24.105Z,6.96
2024-03-06T10:22:59.369Z,7.12
2024-03-06T10:25:30.808Z,7.26
2024-03-06T10:28:13.004Z,7.37
2024-03-06T10:30:48.815Z,7.46
2024-03-06T10:33:22.524Z,7.53
2024-03-06T10:35:54.089Z,7.59
2024-03-06T10:38:28.101Z,7.67
2024-03-06T10:41:04.953Z,7.78
2024-03-06T10:43:42.539Z,7.88
2024-03-06T10:46:15.904Z,7.94
2024-03-06T10:48:56.554Z,8.00
2024-03-06T10:51:31.560Z,8.07
2024-03-06T10:54:08.736Z,8.11
2024-03-06T10:56:44.248Z,8.14
2024-03-06T10:59:20.665Z,8.15
2024-03-06T11:01:55.805Z,8.19
2024-03-06T11:04:36.084Z,8.27
2024-03-06T11:07:12.495Z,8.36
2024-03-06T11:09:51.231Z,8.51
2024-03-06T11:12:42.620Z,8.69
2024-03-06T11:15:20.037Z,8.84
2024-03-06T11:17:56.336Z,9.13
2024-03-06T11:20:29.103Z,9.29
2024-03-06T11:23:01.208Z,9.34
2024-03-06T11:25:52.882Z,9.44
2024-03-06T11:28:31.364Z,9.55
2024-03-06T11:31:13.400Z,9.62
2024-03-06T11:33:47.950Z,9.77
2024-03-06T11:36:31.976Z,9.78
2024-03-06T11:39:12.240Z,9.83
2024-03-06T11:41:52.158Z,9.98
2024-03-06T11:44:27.350Z,10.11
2024-03-06T11:47:05.095Z,10.21
2024-03-06T11:49:42.080Z,10.33
2024-03-06T11:52:15.791Z,10.50
2024-03-06T11:54:55.914Z,10.66
2024-03-06T11:57:29.970Z,10.80
2024-03-06T12:00:10.013Z,10.89
2024-03-06T12:02:46.950Z,10.98
2024-03-06T12:05:26.228Z,11.10
2024-03-06T12:08:04.740Z,11.23
2024-03-06T12:10:43.863Z,11.44
2024-03-06T12:13:18.044Z,11.53
2024-03-06T12:15:49.530Z,11.59
2024-03-06T12:18:24.079Z,11.66
2024-03-06T12:20:57.864Z,11.79
2024-03-06T12:23:29.161Z,11.88
2024-03-06T12:26:12.665Z,12.01
2024-03-06T12:28:46.309Z,12.05
2024-03-06T12:31:19.798Z,12.03
2024-03-06T12:34:03.193Z,12.06
2024-03-06T12:36:37.581Z,12.15
2024-03-06T12:39:14.421Z,12.21
2024-03-06T12:41:48.413Z,12.30
2024-03-06T12:44:23.239Z,12.38
2024-03-06T12:46:58.883Z,12.45
2024-03-06T12:49:30.434Z,12.53
2024-03-06T12:52:06.580Z,12.66
2024-03-06T12:54:37.907Z,12.78
2024-03-06T12:57:12.014Z,12.93
2024-03-06T12:59:45.038Z,13.00
2024-03-06T13:02:16.243Z,13.00
2024-03-06T13:04:47.448Z,12.87
2024-03-06T13:07:21.049Z,12.84
2024-03-06T13:09:56.602Z,12.85
2024-03-06T13:12:32.461Z,12.87
2024-03-06T13:15:13.656Z,12.93
2024-03-06T13:17:45.179Z,13.02
2024-03-06T13:20:18.697Z,13.13
2024-03-06T13:22:51.997Z,13.24
2024-03-06T13:25:26.033Z,13.34
2024-03-06T13:28:01.857Z,13.40
2024-03-06T13:30:35.507Z,13.46
2024-03-06T13:33:13.468Z,13.54
2024-03-06T13:35:50.381Z,13.58
2024-03-06T13:38:29.606Z,13.66
2024-03-06T13:41:08.382Z,13.76
2024-03-06T13:43:44.406Z,13.84
2024-03-06T13:46:18.093Z,13.96
2024-03-06T13:48:53.835Z,13.96
2024-03-06T13:51:27.440Z,14.02
2024-03-06T13:54:00.847Z,14.05
2024-03-06T13:56:34.199Z,14.07
2024-03-06T13:59:12.269Z,14.09
2024-03-06T14:01:50.629Z,14.14
2024-03-06T14:04:22.026Z,14.20
2024-03-06T14:06:58.414Z,14.23
2024-03-06T14:09:30.639Z,14.29
2024-03-06T14:12:04.611Z,14.37
2024-03-06T14:14:40.636Z,14.42
2024-03-06T14:17:15.401Z,14.45
2024-03-06T14:19:49.201Z,14.46
2024-03-06T14:22:23.026Z,14.46
2024-03-06T14:24:54.175Z,14.46
2024-03-06T14:27:25.415Z,14.37
2024-03-06T14:29:58.802Z,14.31
2024-03-06T14:32:30.193Z,14.21
2024-03-06T14:35:06.011Z,14.08
2024-03-06T14:37:45.376Z,13.93
2024-03-06T14:40:19.136Z,13.82
2024-03-06T14:42:52.286Z,13.74
2024-03-06T14:45:24.648Z,13.68
2024-03-06T14:47:56.466Z,13.65
2024-03-06T14:50:30.153Z,13.62
2024-03-06T14:53:03.704Z,13.55
2024-03-06T14:55:35.440Z,13.46
2024-03-06T14:58:08.844Z,13.34
2024-03-06T15:00:49.308Z,13.22
2024-03-06T15:03:28.448Z,13.16
2024-03-06T15:06:01.896Z,13.10
2024-03-06T15:08:36.100Z,13.06
2024-03-06T15:11:10.239Z,13.04
2024-03-06T15:13:44.096Z,13.05
2024-03-06T15:16:17.748Z,13.07
2024-03-06T15:18:52.653Z,13.14
2024-03-06T15:21:33.721Z,13.19
2024-03-06T15:24:06.151Z,13.25
2024-03-06T15:26:45.844Z,13.29
2024-03-06T15:29:19.730Z,13.33
2024-03-06T15:31:51.069Z,13.37
2024-03-06T15:34:26.963Z,13.40
2024-03-06T15:37:01.371Z,13.41
2024-03-06T15:39:32.830Z,13.39
2024-03-06T15:42:04.588Z,13.39
2024-03-06T15:44:43.392Z,13.35
2024-03-06T15:47:16.950Z,13.30
2024-03-06T15:49:52.817Z,13.25
2024-03-06T15:52:26.344Z,13.14
2024-03-06T15:55:06.047Z,13.04
2024-03-06T15:57:41.983Z,12.98
2024-03-06T16:00:18.026Z,12.91
2024-03-06T16:02:51.787Z,12.84
2024-03-06T16:05:23.453Z,12.77
2024-03-06T16:08:05.181Z,12.72
2024-03-06T16:10:41.491Z,12.67
2024-03-06T16:13:14.912Z,12.63
2024-03-06T16:15:48.810Z,12.58
2024-03-06T16:18:22.804Z,12.54
2024-03-06T16:20:57.038Z,12.51
2024-03-06T16:23:33.389Z,12.45
2024-03-06T16:26:07.714Z,12.38
2024-03-06T16:28:43.501Z,12.28
2024-03-06T16:31:20.427Z,12.20
2024-03-06T16:33:54.183Z,12.14
2024-03-06T16:36:30.318Z,12.07
2024-03-06T16:39:01.615Z,11.99
2024-03-06T16:41:36.964Z,11.94
2024-03-06T16:44:09.222Z,11.91
2024-03-06T16:46:43.143Z,11.87
2024-03-06T16:49:19.635Z,11.85
2024-03-06T16:51:55.878Z,11.79
2024-03-06T16:54:33.445Z,11.76
2024-03-06T16:57:12.489Z,11.71
2024-03-06T16:59:49.157Z,11.66
2024-03-06T17:02:22.919Z,11.60
2024-03-06T17:04:56.363Z,11.56
2024-03-06T17:07:27.842Z,11.52
2024-03-06T17:10:03.622Z,11.47
2024-03-06T17:12:39.481Z,11.42
2024-03-06T17:15:20.696Z,11.35
2024-03-06T17:17:57.599Z,11.29
2024-03-06T17:20:31.520Z,11.22
2024-03-06T17:23:05.054Z,11.15
2024-03-06T17:25:38.856Z,11.06
2024-03-06T17:28:12.342Z,10.94
2024-03-06T17:30:44.910Z,10.87
2024-03-06T17:33:21.009Z,10.80
2024-03-06T17:35:58.583Z,10.72
2024-03-06T17:38:35.272Z,10.65
2024-03-06T17:41:08.738Z,10.57
2024-03-06T17:43:39.979Z,10.49
2024-03-06T17:46:16.624Z,10.44
2024-03-06T17:48:47.929Z,10.39
2024-03-06T17:51:23.078Z,10.34
2024-03-06T17:53:56.682Z,10.28
2024-03-06T17:56:28.911Z,10.24
2024-03-06T17:59:03.067Z,10.21
2024-03-06T18:01:39.073Z,10.15
2024-03-06T18:04:13.690Z,10.10
2024-03-06T18:06:47.962Z,10.02
2024-03-06T18:09:23.665Z,9.96
2024-03-06T18:11:57.896Z,9.92
2024-03-06T18:14:31.638Z,9.90
2024-03-06T18:17:06.124Z,9.84
2024-03-06T18:19:42.311Z,9.80
2024-03-06T18:22:16.567Z,9.75
2024-03-06T18:24:50.420Z,9.71
2024-03-06T18:27:28.601Z,9.67
2024-03-06T18:29:59.898Z,9.63
2024-03-06T18:32:34.258Z,9.59
2024-03-06T18:35:06.407Z,9.54
2024-03-06T18:37:39.973Z,9.50
2024-03-06T18:40:14.788Z,9.46
2024-03-06T18:42:51.218Z,9.41
2024-03-06T18:45:22.730Z,9.36
2024-03-06T18:47:56.400Z,9.32
2024-03-06T18:50:33.057Z,9.27
2024-03-06T18:53:07.177Z,9.23
2024-03-06T18:55:41.194Z,9.17
2024-03-06T18:58:15.047Z,9.11
2024-03-06T19:00:51.540Z,9.05
2024-03-06T19:03:27.812Z,9.00
2024-03-06T19:06:01.520Z,8.97
2024-03-06T19:08:32.903Z,8.94
2024-03-06T19:11:06.434Z,8.89
2024-03-06T19:13:40.846Z,8.81
2024-03-06T19:16:12.151Z,8.74
2024-03-06T19:18:45.805Z,8.70
2024-03-06T19:21:19.376Z,8.68
2024-03-06T19:23:53.312Z,8.65
2024-03-06T19:26:29.011Z,8.63
2024-03-06T19:29:00.328Z,8.59
2024-03-06T19:31:36.284Z,8.54
2024-03-06T19:34:07.810Z,8.49
2024-03-06T19:36:39.238Z,8.44
2024-03-06T19:39:10.836Z,8.38
2024-03-06T19:41:45.242Z,8.34
2024-03-06T19:44:20.929Z,8.32
2024-03-06T19:46:54.709Z,8.29
2024-03-06T19:49:30.236Z,8.25
2024-03-06T19:52:04.162Z,8.21
2024-03-06T19:54:38.035Z,8.19
2024-03-06T19:57:11.722Z,8.17
2024-03-06T19:59:50.268Z,8.14
2024-03-06T20:02:21.612Z,8.11
2024-03-06T20:04:55.983Z,8.08
2024-03-06T20:07:29.311Z,8.06
2024-03-06T20:10:02.786Z,8.03
2024-03-06T20:12:34.099Z,8.01
2024-03-06T20:15:08.578Z,7.97
2024-03-06T20:17:44.774Z,7.93
2024-03-06T20:20:18.710Z,7.90
2024-03-06T20:22:50.153Z,7.86
2024-03-06T20:25:26.638Z,7.82
2024-03-06T20:28:02.387Z,7.79
2024-03-06T20:30:33.707Z,7.77
2024-03-06T20:33:10.576Z,7.74
2024-03-06T20:35:42.137Z,7.72
2024-03-06T20:38:17.098Z,7.71
2024-03-06T20:40:57.405Z,7.69
2024-03-06T20:43:28.880Z,7.67
2024-03-06T20:46:04.153Z,7.65
2024-03-06T20:48:35.738Z,7.63
2024-03-06T20:51:13.249Z,7.63
2024-03-06T20:53:46.693Z,7.64
2024-03-06T20:56:20.467Z,7.64
2024-03-06T20:58:52.114Z,7.64
2024-03-06T21:01:25.703Z,7.63
2024-03-06T21:03:59.238Z,7.61
2024-03-06T21:06:35.182Z,7.59
2024-03-06T21:09:11.997Z,7.57
2024-03-06T21:11:45.606Z,7.55
2024-03-06T21:14:17.184Z,7.51
2024-03-06T21:16:54.400Z,7.47
2024-03-06T21:19:30.681Z,7.43
2024-03-06T21:22:02.390Z,7.38
2024-03-06T21:24:39.142Z,7.36
2024-03-06T21:27:12.721Z,7.32
2024-03-06T21:29:50.957Z,7.29
2024-03-06T21:32:27.114Z,7.25
2024-03-06T21:34:59.809Z,7.22
2024-03-06T21:37:39.850Z,7.19
2024-03-06T21:40:16.093Z,7.17
2024-03-06T21:42:49.787Z,7.14
2024-03-06T21:45:25.960Z,7.11
2024-03-06T21:47:57.584Z,7.09
2024-03-06T21:50:28.897Z,7.07
2024-03-06T21:53:04.930Z,7.04
2024-03-06T21:55:40.511Z,7.01
2024-03-06T21:58:11.833Z,6.97
2024-03-06T22:00:43.055Z,6.93
2024-03-06T22:03:18.755Z,6.89
2024-03-06T22:05:52.421Z,6.87
2024-03-06T22:08:23.824Z,6.87
2024-03-06T22:10:57.386Z,6.87
2024-03-06T22:13:33.903Z,6.86
2024-03-06T22:16:07.659Z,6.84
2024-03-06T22:18:44.750Z,6.81
2024-03-06T22:21:19.235Z,6.77
2024-03-06T22:23:53.435Z,6.76
2024-03-06T22:26:27.232Z,6.73
2024-03-06T22:28:58.728Z,6.68
2024-03-06T22:31:29.964Z,6.65
2024-03-06T22:34:08.419Z,6.62
2024-03-06T22:36:41.734Z,6.60
2024-03-06T22:39:20.144Z,6.57
2024-03-06T22:41:54.038Z,6.54
2024-03-06T22:44:30.816Z,6.51
2024-03-06T22:47:08.456Z,6.49
2024-03-06T22:49:44.509Z,6.46
2024-03-06T22:52:15.717Z,6.41
2024-03-06T22:54:46.922Z,6.38
2024-03-06T22:57:18.091Z,6.34
2024-03-06T22:59:54.461Z,6.31
2024-03-06T23:02:30.869Z,6.29
2024-03-06T23:05:02.246Z,6.27
2024-03-06T23:07:35.946Z,6.23
2024-03-06T23:10:12.534Z,6.20
2024-03-06T23:12:46.077Z,6.16
2024-03-06T23:15:21.259Z,6.14
2024-03-06T23:17:56.851Z,6.11
2024-03-06T23:20:31.230Z,6.08
2024-03-06T23:23:02.573Z,6.04
2024-03-06T23:25:34.384Z,6.01
2024-03-06T23:28:12.215Z,5.98
2024-03-06T23:30:46.018Z,5.95
2024-03-06T23:33:19.345Z,5.89
2024-03-06T23:35:52.962Z,5.82
2024-03-06T23:38:28.568Z,5.74
2024-03-06T23:41:02.057Z,5.67
2024-03-06T23:43:33.585Z,5.60
2024-03-06T23:46:09.365Z,5.53
2024-03-06T23:48:40.730Z,5.45
2024-03-06T23:51:16.973Z,5.38
2024-03-06T23:53:48.265Z,5.31
2024-03-06T23:56:25.463Z,5.27
2024-03-06T23:58:59.190Z,5.24
